createdAt,value
2023-02-18T00:01:52.376Z,4.07
2023-02-18T00:04:20.161Z,4.73
2023-02-18T00:06:48.510Z,3.93
2023-02-18T00:09:16.236Z,4.00
2023-02-18T00:11:44.292Z,3.23
2023-02-18T00:14:15.289Z,3.70
2023-02-18T00:16:44.687Z,3.77
2023-02-18T00:19:15.112Z,4.17
2023-02-18T00:21:43.464Z,3.73
2023-02-18T00:24:16.232Z,3.73
2023-02-18T00:26:44.844Z,3.70
2023-02-18T00:29:13.068Z,3.37
2023-02-18T00:31:42.833Z,3.83
2023-02-18T00:34:12.049Z,3.90
2023-02-18T00:36:40.061Z,3.23
2023-02-18T00:39:11.511Z,3.83
2023-02-18T00:41:40.536Z,3.47
2023-02-18T00:44:08.627Z,3.57
2023-02-18T00:46:36.875Z,3.97
2023-02-18T00:49:05.102Z,3.60
2023-02-18T00:51:33.106Z,3.87
2023-02-18T00:54:00.792Z,3.37
2023-02-18T00:56:29.321Z,4.57
2023-02-18T00:58:56.905Z,4.00
2023-02-18T01:01:24.914Z,3.77
2023-02-18T01:03:52.881Z,3.83
2023-02-18T01:06:22.834Z,3.73
2023-02-18T01:08:50.656Z,3.73
2023-02-18T01:11:18.797Z,3.80
2023-02-18T01:13:46.917Z,4.37
2023-02-18T01:16:15.038Z,4.97
2023-02-18T01:18:42.726Z,3.50
2023-02-18T01:21:10.918Z,4.40
2023-02-18T01:23:41.171Z,3.90
2023-02-18T01:26:10.895Z,4.23
2023-02-18T01:28:39.709Z,4.27
2023-02-18T01:31:11.066Z,3.30
2023-02-18T01:33:39.339Z,3.73
2023-02-18T01:36:08.805Z,3.80
2023-02-18T01:38:37.028Z,3.90
2023-02-18T01:41:05.439Z,3.47
2023-02-18T01:43:33.731Z,3.37
2023-02-18T01:46:13.796Z,3.97
2023-02-18T01:48:59.419Z,4.00
2023-02-18T01:51:28.877Z,4.13
2023-02-18T01:54:07.746Z,4.03
2023-02-18T01:56:40.762Z,3.70
2023-02-18T01:59:13.642Z,4.37
2023-02-18T02:01:43.853Z,4.23
2023-02-18T02:04:11.754Z,3.70
2023-02-18T02:06:42.336Z,3.43
2023-02-18T02:09:13.348Z,4.93
2023-02-18T02:12:02.240Z,4.17
2023-02-18T02:14:31.631Z,4.07
2023-02-18T02:17:19.490Z,3.40
2023-02-18T02:20:21.282Z,4.20
2023-02-18T02:23:21.391Z,3.77
2023-02-18T02:25:49.003Z,4.03
2023-02-18T02:28:37.959Z,3.80
2023-02-18T02:31:23.509Z,3.80
2023-02-18T02:34:19.141Z,3.90
2023-02-18T02:36:47.125Z,4.47
2023-02-18T02:39:21.070Z,4.60
2023-02-18T02:42:24.542Z,3.90
2023-02-18T02:44:52.703Z,4.33
2023-02-18T02:47:27.933Z,4.57
2023-02-18T02:50:14.566Z,4.03
2023-02-18T02:52:47.823Z,3.90
2023-02-18T02:55:15.684Z,3.90
2023-02-18T02:57:56.744Z,4.10
2023-02-18T03:00:47.712Z,4.43
2023-02-18T03:03:40.264Z,4.30
2023-02-18T03:06:50.962Z,3.97
2023-02-18T03:09:30.436Z,3.93
2023-02-18T03:12:17.784Z,4.20
2023-02-18T03:14:58.917Z,4.10
2023-02-18T03:17:35.036Z,3.90
2023-02-18T03:20:09.876Z,3.87
2023-02-18T03:22:47.532Z,3.77
2023-02-18T03:25:17.257Z,4.10
2023-02-18T03:27:52.272Z,5.00
2023-02-18T03:30:43.705Z,4.30
2023-02-18T03:33:17.082Z,4.70
2023-02-18T03:35:47.542Z,3.60
2023-02-18T03:38:26.138Z,4.73
2023-02-18T03:40:53.847Z,3.63
2023-02-18T03:43:21.828Z,3.53
2023-02-18T03:45:49.153Z,3.97
2023-02-18T03:48:16.881Z,4.27
2023-02-18T03:50:44.997Z,4.03
2023-02-18T03:53:12.914Z,4.00
2023-02-18T03:55:40.872Z,3.53
2023-02-18T03:58:09.049Z,3.90
2023-02-18T04:00:36.901Z,3.70
2023-02-18T04:03:04.776Z,4.17
2023-02-18T04:05:32.549Z,4.17
2023-02-18T04:08:00.704Z,4.90
2023-02-18T04:10:28.173Z,4.70
2023-02-18T04:12:55.775Z,4.77
2023-02-18T04:15:23.230Z,5.23
2023-02-18T04:17:52.184Z,3.77
2023-02-18T04:20:20.130Z,4.80
2023-02-18T04:22:47.870Z,4.93
2023-02-18T04:25:15.467Z,4.13
2023-02-18T04:27:43.291Z,3.90
2023-02-18T04:30:11.867Z,3.47
2023-02-18T04:32:39.693Z,3.80
2023-02-18T04:35:07.584Z,4.03
2023-02-18T04:37:35.453Z,3.80
2023-02-18T04:40:04.356Z,4.53
2023-02-18T04:42:32.387Z,4.77
2023-02-18T04:45:00.272Z,8.37
2023-02-18T04:47:28.289Z,13.93
2023-02-18T04:49:56.068Z,4.47
2023-02-18T04:52:23.975Z,3.80
2023-02-18T04:54:51.434Z,4.80
2023-02-18T04:57:19.383Z,5.77
2023-02-18T04:59:46.993Z,15.90
2023-02-18T05:02:14.689Z,6.30
2023-02-18T05:04:42.250Z,4.90
2023-02-18T05:07:10.355Z,5.23
2023-02-18T05:09:37.758Z,5.67
2023-02-18T05:12:06.823Z,3.90
2023-02-18T05:14:34.342Z,4.53
2023-02-18T05:17:02.297Z,5.13
2023-02-18T05:19:29.883Z,14.63
2023-02-18T05:21:57.921Z,9.70
2023-02-18T05:24:25.682Z,7.13
2023-02-18T05:26:53.777Z,6.10
2023-02-18T05:29:21.499Z,10.53
2023-02-18T05:31:49.976Z,6.20
2023-02-18T05:34:17.740Z,5.30
2023-02-18T05:36:45.404Z,7.17
2023-02-18T05:39:14.035Z,8.50
2023-02-18T05:41:41.981Z,6.53
2023-02-18T05:44:28.039Z,4.40
2023-02-18T05:46:56.020Z,7.07
2023-02-18T05:49:23.476Z,20.60
2023-02-18T05:51:51.573Z,15.90
2023-02-18T05:54:19.165Z,10.33
2023-02-18T05:56:47.349Z,5.33
2023-02-18T05:59:15.428Z,4.67
2023-02-18T06:01:43.339Z,5.00
2023-02-18T06:04:11.429Z,5.63
2023-02-18T06:06:39.665Z,5.23
2023-02-18T06:09:07.912Z,6.27
2023-02-18T06:11:36.104Z,13.30
2023-02-18T06:14:04.539Z,4.70
2023-02-18T06:16:32.665Z,4.30
2023-02-18T06:19:00.485Z,4.93
2023-02-18T06:21:28.414Z,19.50
2023-02-18T06:23:55.837Z,4.60
2023-02-18T06:26:23.836Z,5.70
2023-02-18T06:28:51.926Z,6.43
2023-02-18T06:31:19.884Z,6.37
2023-02-18T06:33:47.809Z,8.00
2023-02-18T06:36:15.600Z,5.80
2023-02-18T06:38:44.740Z,6.80
2023-02-18T06:41:14.671Z,6.27
2023-02-18T06:43:42.582Z,6.73
2023-02-18T06:46:10.725Z,5.87
2023-02-18T06:48:39.106Z,3.97
2023-02-18T06:51:07.091Z,5.17
2023-02-18T06:53:35.006Z,4.93
2023-02-18T06:56:02.984Z,7.57
2023-02-18T06:58:30.558Z,10.57
2023-02-18T07:00:58.646Z,4.80
2023-02-18T07:03:26.135Z,7.13
2023-02-18T07:05:53.825Z,9.43
2023-02-18T07:08:21.319Z,8.63
2023-02-18T07:10:49.675Z,10.20
2023-02-18T07:13:17.278Z,9.13
2023-02-18T07:15:45.085Z,6.00
2023-02-18T07:18:12.514Z,7.60
2023-02-18T07:20:40.376Z,6.13
2023-02-18T07:23:08.080Z,7.47
2023-02-18T07:25:35.824Z,5.70
2023-02-18T07:28:04.017Z,4.57
2023-02-18T07:30:32.080Z,5.60
2023-02-18T07:32:59.497Z,10.50
2023-02-18T07:35:27.255Z,6.27
2023-02-18T07:37:54.776Z,9.10
2023-02-18T07:40:23.054Z,10.27
2023-02-18T07:42:50.574Z,7.13
2023-02-18T07:45:20.182Z,8.50
2023-02-18T07:47:47.762Z,7.20
2023-02-18T07:50:15.869Z,11.53
2023-02-18T07:52:44.005Z,12.33
2023-02-18T07:55:11.884Z,9.23
2023-02-18T07:57:57.537Z,10.03
2023-02-18T08:00:25.699Z,5.70
2023-02-18T08:02:53.285Z,5.33
2023-02-18T08:05:21.358Z,5.93
2023-02-18T08:07:49.062Z,5.07
2023-02-18T08:10:16.873Z,6.00
2023-02-18T08:12:45.018Z,4.97
2023-02-18T08:15:13.214Z,4.53
2023-02-18T08:17:40.867Z,5.30
2023-02-18T08:20:10.703Z,4.83
2023-02-18T08:22:38.372Z,4.97
2023-02-18T08:25:08.327Z,5.57
2023-02-18T08:27:35.886Z,4.37
2023-02-18T08:30:04.432Z,5.00
2023-02-18T08:32:32.406Z,5.13
2023-02-18T08:35:00.930Z,5.30
2023-02-18T08:37:29.088Z,5.67
2023-02-18T08:40:17.446Z,7.73
2023-02-18T08:42:45.060Z,5.47
2023-02-18T08:45:13.335Z,5.43
2023-02-18T08:48:17.812Z,5.50
2023-02-18T08:50:29.849Z,8.77
2023-02-18T08:53:01.131Z,6.33
2023-02-18T08:55:31.547Z,9.73
2023-02-18T08:57:59.232Z,4.00
2023-02-18T09:00:27.885Z,6.27
2023-02-18T09:02:56.011Z,5.67
2023-02-18T09:05:24.928Z,7.17
2023-02-18T09:07:53.466Z,7.70
2023-02-18T09:10:21.165Z,6.33
2023-02-18T09:12:49.605Z,6.33
2023-02-18T09:15:18.302Z,8.50
2023-02-18T09:17:46.958Z,7.20
2023-02-18T09:20:16.546Z,6.07
2023-02-18T09:22:45.505Z,6.97
2023-02-18T09:25:13.815Z,5.57
2023-02-18T09:27:41.832Z,4.80
2023-02-18T09:30:12.341Z,5.73
2023-02-18T09:32:40.226Z,5.53
2023-02-18T09:35:09.212Z,19.37
2023-02-18T09:37:39.119Z,5.67
2023-02-18T09:40:09.601Z,6.97
2023-02-18T09:42:37.595Z,18.70
2023-02-18T09:45:12.750Z,7.60
2023-02-18T09:47:43.692Z,14.97
2023-02-18T09:50:34.133Z,5.63
2023-02-18T09:53:04.282Z,10.37
2023-02-18T09:55:37.167Z,13.27
2023-02-18T09:58:14.664Z,5.37
2023-02-18T10:01:05.060Z,8.47
2023-02-18T10:03:32.789Z,11.70
2023-02-18T10:06:13.053Z,9.60
2023-02-18T10:08:48.512Z,5.20
2023-02-18T10:11:38.817Z,5.33
2023-02-18T10:14:12.821Z,7.63
2023-02-18T10:16:43.773Z,27.03
2023-02-18T10:19:37.938Z,10.37
2023-02-18T10:22:08.951Z,7.67
2023-02-18T10:24:54.280Z,4.60
2023-02-18T10:27:30.662Z,5.53
2023-02-18T10:30:07.972Z,7.20
2023-02-18T10:32:44.347Z,5.70
2023-02-18T10:35:38.737Z,4.10
2023-02-18T10:38:25.859Z,4.67
2023-02-18T10:41:44.413Z,4.50
2023-02-18T10:44:34.221Z,4.70
2023-02-18T10:47:51.062Z,5.70
2023-02-18T10:50:34.995Z,4.87
2023-02-18T10:53:13.702Z,6.20
2023-02-18T10:55:45.354Z,4.67
2023-02-18T10:58:31.683Z,5.27
2023-02-18T11:01:05.353Z,4.53
2023-02-18T11:04:05.723Z,5.43
2023-02-18T11:06:47.203Z,4.67
2023-02-18T11:09:27.243Z,4.77
2023-02-18T11:12:22.460Z,5.20
2023-02-18T11:15:11.565Z,4.83
2023-02-18T11:17:39.645Z,4.27
2023-02-18T11:20:36.542Z,4.03
2023-02-18T11:23:07.892Z,4.10
2023-02-18T11:25:39.369Z,4.77
2023-02-18T11:28:13.477Z,5.03
2023-02-18T11:30:44.585Z,3.93
2023-02-18T11:33:21.224Z,3.20
2023-02-18T11:35:57.383Z,3.70
2023-02-18T11:38:38.370Z,4.00
2023-02-18T11:41:17.890Z,4.80
2023-02-18T11:43:53.550Z,4.73
2023-02-18T11:46:27.519Z,5.47
2023-02-18T11:48:55.774Z,6.97
2023-02-18T11:51:29.148Z,6.93
2023-02-18T11:54:02.315Z,10.10
2023-02-18T11:56:35.844Z,5.13
2023-02-18T11:59:05.479Z,8.13
2023-02-18T12:01:47.926Z,5.83
2023-02-18T12:05:03.742Z,10.07
2023-02-18T12:07:56.363Z,4.50
2023-02-18T12:10:47.338Z,5.87
2023-02-18T12:13:29.355Z,5.23
2023-02-18T12:16:09.901Z,6.00
2023-02-18T12:18:43.504Z,8.47
2023-02-18T12:21:27.466Z,7.37
2023-02-18T12:24:14.219Z,5.83
2023-02-18T12:26:48.040Z,6.43
2023-02-18T12:29:35.821Z,5.50
2023-02-18T12:32:25.612Z,6.30
2023-02-18T12:35:20.802Z,15.13
2023-02-18T12:38:09.554Z,15.27
2023-02-18T12:41:01.988Z,22.10
2023-02-18T12:43:57.428Z,6.57
2023-02-18T12:46:51.816Z,4.47
2023-02-18T12:49:32.429Z,10.33
2023-02-18T12:52:27.965Z,7.20
2023-02-18T12:55:17.521Z,9.93
2023-02-18T12:58:15.534Z,9.07
2023-02-18T13:01:08.584Z,13.67
2023-02-18T13:03:36.325Z,8.27
2023-02-18T13:06:24.473Z,6.70
2023-02-18T13:09:07.052Z,4.63
2023-02-18T13:11:44.441Z,7.40
2023-02-18T13:14:22.541Z,5.27
2023-02-18T13:16:55.608Z,6.23
2023-02-18T13:19:44.361Z,5.00
2023-02-18T13:22:16.804Z,10.03
2023-02-18T13:24:49.915Z,5.70
2023-02-18T13:27:23.674Z,5.23
2023-02-18T13:30:13.205Z,4.43
2023-02-18T13:33:05.995Z,4.53
2023-02-18T13:35:42.563Z,6.03
2023-02-18T13:38:35.507Z,4.57
2023-02-18T13:41:06.697Z,5.43
2023-02-18T13:43:37.738Z,4.67
2023-02-18T13:46:22.503Z,7.23
2023-02-18T13:49:05.769Z,4.13
2023-02-18T13:51:49.439Z,4.63
2023-02-18T13:54:32.565Z,5.70
2023-02-18T13:57:11.302Z,6.13
2023-02-18T13:59:53.337Z,5.17
2023-02-18T14:02:26.705Z,5.17
2023-02-18T14:05:09.726Z,6.50
2023-02-18T14:07:44.539Z,5.67
2023-02-18T14:10:18.581Z,5.30
2023-02-18T14:12:58.424Z,5.10
2023-02-18T14:15:26.308Z,3.90
2023-02-18T14:18:15.555Z,4.53
2023-02-18T14:20:52.119Z,4.57
2023-02-18T14:23:20.080Z,4.80
2023-02-18T14:25:59.482Z,5.37
2023-02-18T14:28:39.167Z,6.03
2023-02-18T14:31:13.044Z,8.70
2023-02-18T14:33:47.753Z,7.47
2023-02-18T14:36:15.579Z,6.33
2023-02-18T14:38:50.601Z,5.73
2023-02-18T14:41:56.317Z,7.90
2023-02-18T14:45:02.440Z,5.30
2023-02-18T14:47:42.924Z,4.40
2023-02-18T14:50:15.866Z,4.23
2023-02-18T14:52:48.712Z,5.20
2023-02-18T14:55:39.032Z,4.90
2023-02-18T14:58:12.458Z,4.63
2023-02-18T15:00:42.403Z,8.77
2023-02-18T15:03:22.910Z,6.23
2023-02-18T15:05:51.586Z,10.83
2023-02-18T15:08:25.240Z,8.97
2023-02-18T15:11:03.205Z,11.60
2023-02-18T15:13:35.545Z,8.27
2023-02-18T15:16:10.337Z,7.17
2023-02-18T15:18:47.500Z,6.73
2023-02-18T15:21:21.334Z,6.40
2023-02-18T15:23:49.738Z,5.33
2023-02-18T15:26:17.602Z,4.47
2023-02-18T15:28:59.421Z,4.33
2023-02-18T15:31:30.174Z,3.60
2023-02-18T15:33:59.453Z,4.20
2023-02-18T15:36:27.734Z,4.00
2023-02-18T15:38:57.900Z,4.57
2023-02-18T15:41:26.678Z,5.17
2023-02-18T15:44:05.147Z,3.80
2023-02-18T15:46:33.476Z,3.33
2023-02-18T15:49:02.050Z,4.80
2023-02-18T15:51:31.771Z,4.80
2023-02-18T15:54:06.504Z,4.20
2023-02-18T15:56:38.515Z,4.43
2023-02-18T15:59:26.502Z,5.97
2023-02-18T16:02:08.340Z,7.30
2023-02-18T16:04:42.538Z,5.07
2023-02-18T16:07:49.785Z,7.07
2023-02-18T16:10:24.318Z,7.00
2023-02-18T16:12:56.027Z,6.43
2023-02-18T16:15:31.910Z,4.30
2023-02-18T16:18:01.317Z,5.40
2023-02-18T16:20:36.720Z,5.33
2023-02-18T16:23:12.434Z,4.60
2023-02-18T16:25:45.589Z,4.20
2023-02-18T16:28:28.060Z,4.37
2023-02-18T16:30:56.005Z,11.83
2023-02-18T16:33:23.733Z,14.80
2023-02-18T16:35:52.089Z,17.53
2023-02-18T16:38:22.881Z,10.90
2023-02-18T16:40:53.902Z,21.43
2023-02-18T16:43:24.622Z,17.87
2023-02-18T16:45:57.041Z,9.10
2023-02-18T16:48:32.880Z,17.50
2023-02-18T16:51:05.791Z,13.03
2023-02-18T16:53:34.353Z,14.03
2023-02-18T16:56:03.178Z,10.57
2023-02-18T16:58:31.661Z,7.60
2023-02-18T17:00:59.740Z,6.20
2023-02-18T17:03:28.141Z,6.50
2023-02-18T17:05:56.640Z,6.17
2023-02-18T17:08:27.013Z,7.67
2023-02-18T17:11:01.257Z,7.10
2023-02-18T17:13:31.150Z,7.93
2023-02-18T17:15:59.729Z,11.17
2023-02-18T17:18:27.855Z,5.93
2023-02-18T17:20:57.852Z,8.73
2023-02-18T17:23:25.596Z,7.27
2023-02-18T17:25:54.650Z,8.33
2023-02-18T17:28:23.836Z,9.37
2023-02-18T17:30:57.802Z,7.57
2023-02-18T17:33:26.235Z,6.93
2023-02-18T17:35:54.523Z,8.07
2023-02-18T17:38:22.366Z,9.03
2023-02-18T17:40:50.745Z,7.87
2023-02-18T17:43:19.354Z,7.60
2023-02-18T17:45:54.326Z,9.90
2023-02-18T17:48:22.436Z,6.73
2023-02-18T17:50:51.359Z,8.67
2023-02-18T17:53:19.724Z,8.27
2023-02-18T17:55:48.951Z,9.20
2023-02-18T17:58:17.492Z,17.83
2023-02-18T18:00:59.330Z,7.97
2023-02-18T18:03:28.201Z,8.43
2023-02-18T18:05:57.880Z,7.73
2023-02-18T18:08:25.360Z,7.83
2023-02-18T18:10:56.090Z,9.70
2023-02-18T18:13:30.282Z,8.50
2023-02-18T18:15:59.725Z,9.23
2023-02-18T18:18:28.617Z,9.20
2023-02-18T18:21:01.759Z,13.03
2023-02-18T18:23:29.632Z,10.33
2023-02-18T18:25:58.978Z,9.87
2023-02-18T18:28:28.046Z,9.23
2023-02-18T18:30:58.042Z,8.87
2023-02-18T18:33:28.716Z,15.90
2023-02-18T18:35:58.460Z,11.37
2023-02-18T18:38:28.091Z,10.03
2023-02-18T18:40:57.612Z,11.50
2023-02-18T18:43:33.147Z,11.47
2023-02-18T18:46:01.567Z,11.27
2023-02-18T18:48:30.032Z,10.80
2023-02-18T18:50:59.960Z,10.23
2023-02-18T18:53:31.319Z,10.73
2023-02-18T18:56:02.510Z,11.90
2023-02-18T18:58:30.214Z,13.40
2023-02-18T19:01:00.690Z,11.50
2023-02-18T19:03:29.900Z,11.43
2023-02-18T19:05:58.748Z,16.03
2023-02-18T19:08:27.063Z,18.83
2023-02-18T19:10:57.761Z,23.70
2023-02-18T19:13:27.865Z,17.23
2023-02-18T19:16:44.284Z,19.87
2023-02-18T19:19:13.185Z,14.67
2023-02-18T19:21:42.199Z,17.10
2023-02-18T19:24:09.758Z,18.40
2023-02-18T19:26:38.198Z,16.23
2023-02-18T19:29:06.421Z,15.93
2023-02-18T19:31:34.441Z,15.87
2023-02-18T19:34:03.003Z,26.03
2023-02-18T19:36:30.849Z,20.83
2023-02-18T19:38:58.305Z,18.77
2023-02-18T19:41:26.256Z,15.27
2023-02-18T19:43:56.034Z,21.23
2023-02-18T19:46:23.977Z,15.53
2023-02-18T19:48:52.825Z,24.63
2023-02-18T19:51:25.598Z,18.73
2023-02-18T19:53:56.015Z,19.07
2023-02-18T19:56:25.290Z,15.00
2023-02-18T19:58:56.734Z,20.57
2023-02-18T20:01:25.468Z,31.10
2023-02-18T20:03:54.063Z,25.57
2023-02-18T20:06:22.851Z,18.70
2023-02-18T20:08:51.097Z,20.77
2023-02-18T20:11:19.336Z,19.67
2023-02-18T20:13:49.222Z,18.17
2023-02-18T20:16:18.073Z,23.30
2023-02-18T20:18:46.484Z,19.60
2023-02-18T20:21:14.704Z,19.30
2023-02-18T20:23:43.021Z,12.50
2023-02-18T20:26:15.129Z,15.93
2023-02-18T20:28:44.652Z,12.27
2023-02-18T20:31:15.066Z,8.30
2023-02-18T20:33:45.143Z,19.20
2023-02-18T20:36:15.038Z,17.63
2023-02-18T20:38:43.438Z,11.00
2023-02-18T20:41:15.030Z,12.70
2023-02-18T20:43:48.227Z,11.80
2023-02-18T20:46:20.970Z,10.40
2023-02-18T20:48:49.563Z,11.37
2023-02-18T20:51:22.810Z,9.60
2023-02-18T20:53:51.924Z,12.43
2023-02-18T20:56:22.387Z,10.87
2023-02-18T20:58:50.622Z,10.97
2023-02-18T21:01:19.799Z,10.33
2023-02-18T21:03:49.161Z,10.90
2023-02-18T21:06:20.430Z,14.30
2023-02-18T21:08:53.354Z,12.70
2023-02-18T21:11:24.817Z,6.03
2023-02-18T21:13:56.629Z,11.77
2023-02-18T21:16:27.129Z,6.60
2023-02-18T21:18:55.756Z,10.67
2023-02-18T21:21:24.108Z,15.47
2023-02-18T21:23:52.461Z,8.77
2023-02-18T21:26:24.624Z,8.37
2023-02-18T21:28:56.700Z,7.97
2023-02-18T21:31:32.859Z,12.07
2023-02-18T21:34:02.756Z,13.50
2023-02-18T21:36:33.739Z,10.60
2023-02-18T21:39:06.598Z,5.47
2023-02-18T21:41:40.464Z,11.17
2023-02-18T21:44:14.404Z,12.00
2023-02-18T21:46:43.904Z,15.73
2023-02-18T21:49:13.541Z,13.00
2023-02-18T21:52:00.251Z,16.13
2023-02-18T21:54:30.679Z,16.50
2023-02-18T21:57:00.090Z,12.37
2023-02-18T21:59:29.199Z,14.47
2023-02-18T22:02:01.715Z,16.37
2023-02-18T22:04:31.217Z,9.97
2023-02-18T22:07:00.090Z,11.93
2023-02-18T22:09:27.861Z,26.40
2023-02-18T22:11:55.922Z,15.23
2023-02-18T22:14:23.659Z,7.07
2023-02-18T22:16:51.542Z,8.57
2023-02-18T22:19:19.547Z,5.40
2023-02-18T22:21:49.621Z,8.37
2023-02-18T22:24:19.067Z,9.37
2023-02-18T22:26:48.105Z,6.63
2023-02-18T22:29:18.718Z,8.23
2023-02-18T22:31:47.841Z,12.00
2023-02-18T22:34:16.936Z,9.33
2023-02-18T22:36:44.715Z,6.90
2023-02-18T22:39:13.649Z,13.20
2023-02-18T22:41:42.078Z,15.33
2023-02-18T22:44:16.271Z,15.93
2023-02-18T22:46:44.583Z,12.67
2023-02-18T22:49:12.802Z,10.27
2023-02-18T22:51:43.463Z,7.77
2023-02-18T22:54:14.593Z,7.23
2023-02-18T22:56:43.211Z,7.00
2023-02-18T22:59:12.219Z,7.97
2023-02-18T23:01:43.429Z,7.90
2023-02-18T23:04:16.494Z,7.93
2023-02-18T23:06:47.197Z,6.87
2023-02-18T23:09:18.948Z,8.80
2023-02-18T23:11:50.741Z,8.33
2023-02-18T23:14:19.999Z,8.70
2023-02-18T23:17:09.418Z,9.17
2023-02-18T23:19:37.991Z,7.07
2023-02-18T23:22:06.678Z,7.23
2023-02-18T23:24:36.298Z,7.27
2023-02-18T23:27:05.501Z,7.50
2023-02-18T23:29:33.370Z,8.03
2023-02-18T23:32:01.513Z,8.23
2023-02-18T23:34:29.498Z,8.03
2023-02-18T23:36:58.565Z,6.80
2023-02-18T23:39:27.057Z,6.67
2023-02-18T23:41:56.485Z,6.77
2023-02-18T23:44:26.247Z,5.93
2023-02-18T23:46:54.283Z,6.50
2023-02-18T23:49:26.963Z,5.73
2023-02-18T23:51:56.966Z,5.57
2023-02-18T23:54:24.855Z,6.20
2023-02-18T23:56:52.420Z,6.53
2023-02-18T23:59:20.037Z,6.10
